sensor_id;sensor_type;location;lat;lon;timestamp;P1;durP1;ratioP1;P2;durP2;ratioP2
53389;SDS011;39288;42.970;1.524;2023-03-13T00:39:18;54.80;;;4.40;;
53389;SDS011;39288;42.970;1.524;2023-03-13T00:40:47;4.38;;;2.20;;
53389;SDS011;39288;42.970;1.524;2023-03-13T00:41:48;3.10;;;2.77;;
53389;SDS011;39288;42.970;1.524;2023-03-13T00:42:48;4.47;;;2.60;;
53389;SDS011;39288;42.970;1.524;2023-03-13T00:43:49;4.23;;;2.77;;
53389;SDS011;39288;42.970;1.524;2023-03-13T00:44:50;4.40;;;2.63;;
53389;SDS011;39288;42.970;1.524;2023-03-13T00:45:50;6.70;;;2.60;;
53389;SDS011;39288;42.970;1.524;2023-03-13T00:46:51;8.03;;;2.80;;
53389;SDS011;39288;42.970;1.524;2023-03-13T00:47:51;3.13;;;2.13;;
53389;SDS011;39288;42.970;1.524;2023-03-13T00:48:52;4.43;;;2.50;;
53389;SDS011;39288;42.970;1.524;2023-03-13T00:49:52;3.90;;;2.17;;
53389;SDS011;39288;42.970;1.524;2023-03-13T00:50:53;3.73;;;2.30;;
53389;SDS011;39288;42.970;1.524;2023-03-13T00:51:53;5.83;;;2.63;;
53389;SDS011;39288;42.970;1.524;2023-03-13T00:52:54;4.13;;;2.57;;
53389;SDS011;39288;42.970;1.524;2023-03-13T00:53:55;3.40;;;2.50;;
53389;SDS011;39288;42.970;1.524;2023-03-13T00:54:58;3.67;;;2.30;;
53389;SDS011;39288;42.970;1.524;2023-03-13T00:56:00;4.37;;;2.23;;
53389;SDS011;39288;42.970;1.524;2023-03-13T00:57:08;4.30;;;2.40;;
53389;SDS011;39288;42.970;1.524;2023-03-13T00:58:08;4.90;;;2.50;;
53389;SDS011;39288;42.970;1.524;2023-03-13T00:59:09;3.37;;;2.53;;
53389;SDS011;39288;42.970;1.524;2023-03-13T01:00:09;4.50;;;2.57;;
53389;SDS011;39288;42.970;1.524;2023-03-13T01:02:15;3.83;;;2.65;;
53389;SDS011;39288;42.970;1.524;2023-03-13T01:03:15;5.40;;;2.70;;
53389;SDS011;39288;42.970;1.524;2023-03-13T01:04:16;4.10;;;2.80;;
53389;SDS011;39288;42.970;1.524;2023-03-13T01:05:16;4.97;;;2.93;;
53389;SDS011;39288;42.970;1.524;2023-03-13T01:06:18;4.33;;;2.60;;
53389;SDS011;39288;42.970;1.524;2023-03-13T01:07:20;2.60;;;2.08;;
53389;SDS011;39288;42.970;1.524;2023-03-13T01:08:20;4.37;;;2.43;;
53389;SDS011;39288;42.970;1.524;2023-03-13T01:09:21;4.07;;;2.53;;
53389;SDS011;39288;42.970;1.524;2023-03-13T01:10:21;4.23;;;2.47;;
53389;SDS011;39288;42.970;1.524;2023-03-13T01:11:22;2.43;;;2.00;;
53389;SDS011;39288;42.970;1.524;2023-03-13T01:12:30;8.00;;;2.45;;
53389;SDS011;39288;42.970;1.524;2023-03-13T01:13:31;4.77;;;2.10;;
53389;SDS011;39288;42.970;1.524;2023-03-13T01:14:34;4.45;;;1.98;;
53389;SDS011;39288;42.970;1.524;2023-03-13T01:15:34;3.80;;;1.97;;
53389;SDS011;39288;42.970;1.524;2023-03-13T01:16:36;2.57;;;2.33;;
53389;SDS011;39288;42.970;1.524;2023-03-13T01:17:36;3.67;;;2.30;;
53389;SDS011;39288;42.970;1.524;2023-03-13T01:18:38;2.33;;;2.10;;
53389;SDS011;39288;42.970;1.524;2023-03-13T01:19:39;6.47;;;1.80;;
53389;SDS011;39288;42.970;1.524;2023-03-13T01:20:40;4.37;;;2.70;;
53389;SDS011;39288;42.970;1.524;2023-03-13T01:21:41;2.47;;;1.97;;
53389;SDS011;39288;42.970;1.524;2023-03-13T01:22:45;5.32;;;2.13;;
53389;SDS011;39288;42.970;1.524;2023-03-13T01:23:46;4.47;;;2.43;;
53389;SDS011;39288;42.970;1.524;2023-03-13T01:24:47;7.75;;;2.20;;
53389;SDS011;39288;42.970;1.524;2023-03-13T01:25:51;3.72;;;2.42;;
53389;SDS011;39288;42.970;1.524;2023-03-13T01:26:53;2.72;;;2.13;;
53389;SDS011;39288;42.970;1.524;2023-03-13T01:27:54;7.10;;;2.07;;
53389;SDS011;39288;42.970;1.524;2023-03-13T01:28:54;6.30;;;2.63;;
53389;SDS011;39288;42.970;1.524;2023-03-13T01:29:55;3.70;;;1.83;;
53389;SDS011;39288;42.970;1.524;2023-03-13T01:30:55;4.50;;;2.03;;
53389;SDS011;39288;42.970;1.524;2023-03-13T01:31:56;7.43;;;2.20;;
53389;SDS011;39288;42.970;1.524;2023-03-13T01:32:56;3.90;;;2.57;;
53389;SDS011;39288;42.970;1.524;2023-03-13T01:33:57;7.80;;;2.60;;
53389;SDS011;39288;42.970;1.524;2023-03-13T01:34:59;5.68;;;2.50;;
53389;SDS011;39288;42.970;1.524;2023-03-13T01:36:00;6.67;;;3.13;;
53389;SDS011;39288;42.970;1.524;2023-03-13T01:37:01;3.60;;;1.88;;
53389;SDS011;39288;42.970;1.524;2023-03-13T01:38:02;3.07;;;1.97;;
53389;SDS011;39288;42.970;1.524;2023-03-13T01:39:02;7.23;;;2.10;;
53389;SDS011;39288;42.970;1.524;2023-03-13T01:40:03;4.07;;;1.70;;
53389;SDS011;39288;42.970;1.524;2023-03-13T01:41:04;4.73;;;1.70;;
53389;SDS011;39288;42.970;1.524;2023-03-13T01:43:39;1.85;;;1.50;;
53389;SDS011;39288;42.970;1.524;2023-03-13T01:44:53;2.10;;;1.58;;
53389;SDS011;39288;42.970;1.524;2023-03-13T01:47:01;7.22;;;1.90;;
53389;SDS011;39288;42.970;1.524;2023-03-13T01:48:02;3.93;;;1.90;;
53389;SDS011;39288;42.970;1.524;2023-03-13T01:49:04;3.03;;;2.20;;
53389;SDS011;39288;42.970;1.524;2023-03-13T01:50:07;3.35;;;1.70;;
53389;SDS011;39288;42.970;1.524;2023-03-13T01:51:10;3.28;;;1.67;;
53389;SDS011;39288;42.970;1.524;2023-03-13T01:52:21;5.18;;;1.88;;
53389;SDS011;39288;42.970;1.524;2023-03-13T01:53:23;5.88;;;1.80;;
53389;SDS011;39288;42.970;1.524;2023-03-13T01:54:25;4.55;;;2.30;;
53389;SDS011;39288;42.970;1.524;2023-03-13T01:55:29;3.22;;;1.60;;
53389;SDS011;39288;42.970;1.524;2023-03-13T01:56:40;6.07;;;2.50;;
53389;SDS011;39288;42.970;1.524;2023-03-13T01:57:50;4.35;;;1.92;;
53389;SDS011;39288;42.970;1.524;2023-03-13T01:58:52;2.83;;;2.08;;
53389;SDS011;39288;42.970;1.524;2023-03-13T01:59:55;3.13;;;1.67;;
53389;SDS011;39288;42.970;1.524;2023-03-13T02:01:07;4.90;;;1.83;;
53389;SDS011;39288;42.970;1.524;2023-03-13T02:02:08;7.97;;;2.35;;
53389;SDS011;39288;42.970;1.524;2023-03-13T02:03:10;2.77;;;2.43;;
53389;SDS011;39288;42.970;1.524;2023-03-13T02:04:12;7.38;;;1.80;;
53389;SDS011;39288;42.970;1.524;2023-03-13T02:05:13;4.57;;;2.50;;
53389;SDS011;39288;42.970;1.524;2023-03-13T02:07:17;3.15;;;1.70;;
53389;SDS011;39288;42.970;1.524;2023-03-13T02:08:24;3.00;;;1.65;;
53389;SDS011;39288;42.970;1.524;2023-03-13T02:09:30;6.35;;;2.00;;
53389;SDS011;39288;42.970;1.524;2023-03-13T02:10:32;27.08;;;2.97;;
53389;SDS011;39288;42.970;1.524;2023-03-13T02:11:49;8.02;;;2.38;;
53389;SDS011;39288;42.970;1.524;2023-03-13T02:12:53;2.88;;;1.98;;
53389;SDS011;39288;42.970;1.524;2023-03-13T02:13:53;2.97;;;1.70;;
53389;SDS011;39288;42.970;1.524;2023-03-13T02:14:55;2.45;;;1.45;;
53389;SDS011;39288;42.970;1.524;2023-03-13T02:15:57;2.20;;;1.60;;
53389;SDS011;39288;42.970;1.524;2023-03-13T02:16:58;1.53;;;1.40;;
53389;SDS011;39288;42.970;1.524;2023-03-13T02:17:59;3.17;;;1.65;;
53389;SDS011;39288;42.970;1.524;2023-03-13T02:19:01;3.07;;;1.50;;
53389;SDS011;39288;42.970;1.524;2023-03-13T02:20:17;3.78;;;1.52;;
53389;SDS011;39288;42.970;1.524;2023-03-13T02:21:41;4.63;;;1.80;;
53389;SDS011;39288;42.970;1.524;2023-03-13T02:22:46;5.00;;;1.60;;
53389;SDS011;39288;42.970;1.524;2023-03-13T02:25:39;3.50;;;1.98;;
53389;SDS011;39288;42.970;1.524;2023-03-13T02:26:42;5.78;;;2.75;;
53389;SDS011;39288;42.970;1.524;2023-03-13T02:27:42;5.37;;;3.27;;
53389;SDS011;39288;42.970;1.524;2023-03-13T02:28:44;14.30;;;3.40;;
53389;SDS011;39288;42.970;1.524;2023-03-13T02:29:45;9.60;;;3.63;;
53389;SDS011;39288;42.970;1.524;2023-03-13T02:30:46;5.77;;;2.70;;
53389;SDS011;39288;42.970;1.524;2023-03-13T02:31:49;3.45;;;2.25;;
53389;SDS011;39288;42.970;1.524;2023-03-13T02:32:50;3.42;;;2.00;;
53389;SDS011;39288;42.970;1.524;2023-03-13T02:33:50;8.53;;;2.37;;
53389;SDS011;39288;42.970;1.524;2023-03-13T02:34:51;2.03;;;1.70;;
53389;SDS011;39288;42.970;1.524;2023-03-13T02:35:55;4.78;;;1.80;;
53389;SDS011;39288;42.970;1.524;2023-03-13T02:36:58;4.40;;;1.90;;
53389;SDS011;39288;42.970;1.524;2023-03-13T02:39:01;3.80;;;1.77;;
53389;SDS011;39288;42.970;1.524;2023-03-13T02:40:07;2.97;;;1.30;;
53389;SDS011;39288;42.970;1.524;2023-03-13T02:41:10;4.25;;;1.40;;
53389;SDS011;39288;42.970;1.524;2023-03-13T02:42:12;1.42;;;1.00;;
53389;SDS011;39288;42.970;1.524;2023-03-13T02:43:25;1.65;;;1.27;;
53389;SDS011;39288;42.970;1.524;2023-03-13T02:44:34;3.08;;;1.20;;
53389;SDS011;39288;42.970;1.524;2023-03-13T02:47:22;1.95;;;1.08;;
53389;SDS011;39288;42.970;1.524;2023-03-13T02:48:31;4.38;;;1.20;;
53389;SDS011;39288;42.970;1.524;2023-03-13T02:49:33;1.63;;;1.35;;
53389;SDS011;39288;42.970;1.524;2023-03-13T02:50:35;2.33;;;1.20;;
53389;SDS011;39288;42.970;1.524;2023-03-13T02:51:37;2.20;;;1.30;;
53389;SDS011;39288;42.970;1.524;2023-03-13T02:52:44;1.50;;;1.10;;
53389;SDS011;39288;42.970;1.524;2023-03-13T02:53:49;3.17;;;1.02;;
53389;SDS011;39288;42.970;1.524;2023-03-13T02:54:52;4.88;;;1.23;;
53389;SDS011;39288;42.970;1.524;2023-03-13T02:55:58;2.25;;;1.33;;
53389;SDS011;39288;42.970;1.524;2023-03-13T02:57:06;3.60;;;0.98;;
53389;SDS011;39288;42.970;1.524;2023-03-13T02:58:07;2.07;;;1.20;;
53389;SDS011;39288;42.970;1.524;2023-03-13T02:59:09;5.25;;;1.85;;
53389;SDS011;39288;42.970;1.524;2023-03-13T03:00:12;2.65;;;1.45;;
53389;SDS011;39288;42.970;1.524;2023-03-13T03:01:25;1.98;;;1.33;;
53389;SDS011;39288;42.970;1.524;2023-03-13T03:02:26;2.33;;;1.50;;
53389;SDS011;39288;42.970;1.524;2023-03-13T03:03:26;3.10;;;2.30;;
53389;SDS011;39288;42.970;1.524;2023-03-13T03:04:27;4.90;;;1.70;;
53389;SDS011;39288;42.970;1.524;2023-03-13T03:05:27;4.57;;;1.70;;
53389;SDS011;39288;42.970;1.524;2023-03-13T03:06:28;2.47;;;1.90;;
53389;SDS011;39288;42.970;1.524;2023-03-13T03:07:28;3.87;;;1.50;;
53389;SDS011;39288;42.970;1.524;2023-03-13T03:08:29;5.37;;;1.30;;
53389;SDS011;39288;42.970;1.524;2023-03-13T03:09:29;2.17;;;1.20;;
53389;SDS011;39288;42.970;1.524;2023-03-13T03:10:34;2.20;;;1.20;;
53389;SDS011;39288;42.970;1.524;2023-03-13T03:11:36;4.50;;;1.30;;
53389;SDS011;39288;42.970;1.524;2023-03-13T03:12:37;2.28;;;1.27;;
53389;SDS011;39288;42.970;1.524;2023-03-13T03:13:38;6.13;;;1.30;;
53389;SDS011;39288;42.970;1.524;2023-03-13T03:14:43;2.00;;;1.20;;
53389;SDS011;39288;42.970;1.524;2023-03-13T03:15:44;4.70;;;1.20;;
53389;SDS011;39288;42.970;1.524;2023-03-13T03:16:44;2.33;;;1.03;;
53389;SDS011;39288;42.970;1.524;2023-03-13T03:17:45;2.53;;;1.70;;
53389;SDS011;39288;42.970;1.524;2023-03-13T03:18:45;2.23;;;1.03;;
53389;SDS011;39288;42.970;1.524;2023-03-13T03:19:46;2.00;;;1.10;;
53389;SDS011;39288;42.970;1.524;2023-03-13T03:20:46;2.57;;;1.10;;
53389;SDS011;39288;42.970;1.524;2023-03-13T03:21:46;0.93;;;0.80;;
53389;SDS011;39288;42.970;1.524;2023-03-13T03:22:48;5.25;;;1.48;;
53389;SDS011;39288;42.970;1.524;2023-03-13T03:23:49;5.80;;;1.20;;
53389;SDS011;39288;42.970;1.524;2023-03-13T03:24:50;2.38;;;1.13;;
53389;SDS011;39288;42.970;1.524;2023-03-13T03:25:50;3.10;;;1.10;;
53389;SDS011;39288;42.970;1.524;2023-03-13T03:26:51;4.20;;;1.50;;
53389;SDS011;39288;42.970;1.524;2023-03-13T03:27:51;3.43;;;1.30;;
53389;SDS011;39288;42.970;1.524;2023-03-13T03:28:52;3.27;;;1.10;;
53389;SDS011;39288;42.970;1.524;2023-03-13T03:29:52;2.17;;;1.07;;
53389;SDS011;39288;42.970;1.524;2023-03-13T03:30:53;2.63;;;0.87;;
53389;SDS011;39288;42.970;1.524;2023-03-13T03:31:53;3.30;;;0.97;;
53389;SDS011;39288;42.970;1.524;2023-03-13T03:32:54;2.30;;;1.40;;
53389;SDS011;39288;42.970;1.524;2023-03-13T03:33:55;1.30;;;1.00;;
53389;SDS011;39288;42.970;1.524;2023-03-13T03:34:56;3.88;;;1.20;;
53389;SDS011;39288;42.970;1.524;2023-03-13T03:36:00;10.87;;;1.90;;
53389;SDS011;39288;42.970;1.524;2023-03-13T03:37:01;2.75;;;0.90;;
53389;SDS011;39288;42.970;1.524;2023-03-13T03:38:02;2.33;;;1.20;;
53389;SDS011;39288;42.970;1.524;2023-03-13T03:39:02;5.57;;;0.97;;
53389;SDS011;39288;42.970;1.524;2023-03-13T03:40:04;1.98;;;1.13;;
53389;SDS011;39288;42.970;1.524;2023-03-13T03:41:06;1.52;;;1.10;;
53389;SDS011;39288;42.970;1.524;2023-03-13T03:42:07;1.40;;;1.10;;
53389;SDS011;39288;42.970;1.524;2023-03-13T03:43:08;1.38;;;1.20;;
53389;SDS011;39288;42.970;1.524;2023-03-13T03:44:11;3.38;;;1.17;;
53389;SDS011;39288;42.970;1.524;2023-03-13T03:45:12;3.70;;;1.60;;
53389;SDS011;39288;42.970;1.524;2023-03-13T03:46:13;3.63;;;1.33;;
53389;SDS011;39288;42.970;1.524;2023-03-13T03:47:13;2.30;;;1.17;;
53389;SDS011;39288;42.970;1.524;2023-03-13T03:48:14;2.77;;;1.10;;
53389;SDS011;39288;42.970;1.524;2023-03-13T03:49:14;1.93;;;1.00;;
53389;SDS011;39288;42.970;1.524;2023-03-13T03:50:15;1.70;;;0.90;;
53389;SDS011;39288;42.970;1.524;2023-03-13T03:51:15;1.30;;;1.10;;
53389;SDS011;39288;42.970;1.524;2023-03-13T03:52:16;1.30;;;1.10;;
53389;SDS011;39288;42.970;1.524;2023-03-13T03:53:17;1.67;;;1.17;;
53389;SDS011;39288;42.970;1.524;2023-03-13T03:54:17;6.50;;;1.30;;
53389;SDS011;39288;42.970;1.524;2023-03-13T03:55:18;2.03;;;1.30;;
53389;SDS011;39288;42.970;1.524;2023-03-13T03:56:19;1.60;;;1.13;;
53389;SDS011;39288;42.970;1.524;2023-03-13T03:57:19;4.37;;;1.40;;
53389;SDS011;39288;42.970;1.524;2023-03-13T03:58:20;3.67;;;1.50;;
53389;SDS011;39288;42.970;1.524;2023-03-13T03:59:20;2.07;;;1.23;;
53389;SDS011;39288;42.970;1.524;2023-03-13T04:00:24;3.23;;;1.30;;
53389;SDS011;39288;42.970;1.524;2023-03-13T04:01:24;2.53;;;1.17;;
53389;SDS011;39288;42.970;1.524;2023-03-13T04:02:25;1.10;;;1.00;;
53389;SDS011;39288;42.970;1.524;2023-03-13T04:03:30;2.28;;;1.17;;
53389;SDS011;39288;42.970;1.524;2023-03-13T04:04:31;1.90;;;1.33;;
53389;SDS011;39288;42.970;1.524;2023-03-13T04:05:31;3.80;;;1.63;;
53389;SDS011;39288;42.970;1.524;2023-03-13T04:06:32;6.00;;;1.30;;
53389;SDS011;39288;42.970;1.524;2023-03-13T04:07:32;2.07;;;1.07;;
53389;SDS011;39288;42.970;1.524;2023-03-13T04:08:33;6.30;;;1.60;;
53389;SDS011;39288;42.970;1.524;2023-03-13T04:09:33;2.27;;;1.17;;
53389;SDS011;39288;42.970;1.524;2023-03-13T04:10:34;6.00;;;1.30;;
53389;SDS011;39288;42.970;1.524;2023-03-13T04:11:34;4.93;;;1.37;;
53389;SDS011;39288;42.970;1.524;2023-03-13T04:12:35;2.97;;;1.10;;
53389;SDS011;39288;42.970;1.524;2023-03-13T04:13:35;2.83;;;0.97;;
53389;SDS011;39288;42.970;1.524;2023-03-13T04:14:36;2.30;;;1.07;;
53389;SDS011;39288;42.970;1.524;2023-03-13T04:15:37;2.80;;;1.10;;
53389;SDS011;39288;42.970;1.524;2023-03-13T04:17:39;1.50;;;1.20;;
53389;SDS011;39288;42.970;1.524;2023-03-13T04:18:39;4.70;;;1.07;;
53389;SDS011;39288;42.970;1.524;2023-03-13T04:19:40;1.53;;;1.00;;
53389;SDS011;39288;42.970;1.524;2023-03-13T04:20:40;4.30;;;1.43;;
53389;SDS011;39288;42.970;1.524;2023-03-13T04:21:40;5.27;;;1.33;;
53389;SDS011;39288;42.970;1.524;2023-03-13T04:22:41;3.07;;;1.20;;
53389;SDS011;39288;42.970;1.524;2023-03-13T04:23:42;4.97;;;1.33;;
53389;SDS011;39288;42.970;1.524;2023-03-13T04:24:42;2.10;;;1.20;;
53389;SDS011;39288;42.970;1.524;2023-03-13T04:25:42;2.17;;;1.57;;
53389;SDS011;39288;42.970;1.524;2023-03-13T04:26:43;2.53;;;1.97;;
53389;SDS011;39288;42.970;1.524;2023-03-13T04:27:43;2.37;;;1.10;;
53389;SDS011;39288;42.970;1.524;2023-03-13T04:28:44;5.97;;;1.37;;
53389;SDS011;39288;42.970;1.524;2023-03-13T04:29:44;1.23;;;0.97;;
53389;SDS011;39288;42.970;1.524;2023-03-13T04:30:45;2.77;;;1.37;;
53389;SDS011;39288;42.970;1.524;2023-03-13T04:31:45;3.27;;;1.13;;
53389;SDS011;39288;42.970;1.524;2023-03-13T04:32:46;2.27;;;0.97;;
53389;SDS011;39288;42.970;1.524;2023-03-13T04:33:46;1.47;;;1.03;;
53389;SDS011;39288;42.970;1.524;2023-03-13T04:34:47;3.60;;;1.13;;
53389;SDS011;39288;42.970;1.524;2023-03-13T04:35:47;3.63;;;1.77;;
53389;SDS011;39288;42.970;1.524;2023-03-13T04:36:48;5.93;;;3.93;;
53389;SDS011;39288;42.970;1.524;2023-03-13T04:37:51;2.90;;;1.50;;
53389;SDS011;39288;42.970;1.524;2023-03-13T04:38:51;3.13;;;1.30;;
53389;SDS011;39288;42.970;1.524;2023-03-13T04:39:52;2.77;;;1.40;;
53389;SDS011;39288;42.970;1.524;2023-03-13T04:40:52;8.80;;;1.20;;
53389;SDS011;39288;42.970;1.524;2023-03-13T04:41:53;2.57;;;1.10;;
53389;SDS011;39288;42.970;1.524;2023-03-13T04:42:54;4.30;;;2.03;;
53389;SDS011;39288;42.970;1.524;2023-03-13T04:43:55;7.27;;;1.83;;
53389;SDS011;39288;42.970;1.524;2023-03-13T04:44:55;5.00;;;1.07;;
53389;SDS011;39288;42.970;1.524;2023-03-13T04:45:56;1.73;;;1.07;;
53389;SDS011;39288;42.970;1.524;2023-03-13T04:46:56;3.40;;;1.13;;
53389;SDS011;39288;42.970;1.524;2023-03-13T04:47:57;4.90;;;1.10;;
53389;SDS011;39288;42.970;1.524;2023-03-13T04:48:57;1.40;;;1.30;;
53389;SDS011;39288;42.970;1.524;2023-03-13T04:49:58;2.90;;;1.10;;
53389;SDS011;39288;42.970;1.524;2023-03-13T04:50:58;2.17;;;1.00;;
53389;SDS011;39288;42.970;1.524;2023-03-13T04:51:58;3.43;;;1.63;;
53389;SDS011;39288;42.970;1.524;2023-03-13T04:52:59;2.30;;;1.50;;
53389;SDS011;39288;42.970;1.524;2023-03-13T04:53:59;9.13;;;1.30;;
53389;SDS011;39288;42.970;1.524;2023-03-13T04:55:00;2.23;;;1.30;;
53389;SDS011;39288;42.970;1.524;2023-03-13T04:56:00;5.67;;;1.60;;
53389;SDS011;39288;42.970;1.524;2023-03-13T04:57:01;3.80;;;1.20;;
53389;SDS011;39288;42.970;1.524;2023-03-13T04:58:01;1.00;;;0.90;;
53389;SDS011;39288;42.970;1.524;2023-03-13T04:59:02;3.90;;;1.20;;
53389;SDS011;39288;42.970;1.524;2023-03-13T05:00:03;3.57;;;1.47;;
53389;SDS011;39288;42.970;1.524;2023-03-13T05:01:07;9.32;;;1.42;;
53389;SDS011;39288;42.970;1.524;2023-03-13T05:02:09;1.33;;;0.63;;
53389;SDS011;39288;42.970;1.524;2023-03-13T05:03:11;2.47;;;1.20;;
53389;SDS011;39288;42.970;1.524;2023-03-13T05:04:11;2.23;;;1.00;;
53389;SDS011;39288;42.970;1.524;2023-03-13T05:05:12;3.23;;;1.43;;
53389;SDS011;39288;42.970;1.524;2023-03-13T05:06:12;2.77;;;1.07;;
53389;SDS011;39288;42.970;1.524;2023-03-13T05:07:13;1.50;;;1.00;;
53389;SDS011;39288;42.970;1.524;2023-03-13T05:08:13;3.10;;;1.20;;
53389;SDS011;39288;42.970;1.524;2023-03-13T05:09:14;7.53;;;1.57;;
53389;SDS011;39288;42.970;1.524;2023-03-13T05:10:14;3.13;;;1.47;;
53389;SDS011;39288;42.970;1.524;2023-03-13T05:11:15;2.83;;;1.30;;
53389;SDS011;39288;42.970;1.524;2023-03-13T05:12:15;3.60;;;1.67;;
53389;SDS011;39288;42.970;1.524;2023-03-13T05:13:16;1.27;;;1.07;;
53389;SDS011;39288;42.970;1.524;2023-03-13T05:14:16;1.90;;;1.50;;
53389;SDS011;39288;42.970;1.524;2023-03-13T05:15:18;4.57;;;1.42;;
53389;SDS011;39288;42.970;1.524;2023-03-13T05:16:18;1.50;;;1.17;;
53389;SDS011;39288;42.970;1.524;2023-03-13T05:17:19;2.63;;;1.00;;
53389;SDS011;39288;42.970;1.524;2023-03-13T05:18:19;1.83;;;1.00;;
53389;SDS011;39288;42.970;1.524;2023-03-13T05:19:20;2.80;;;0.77;;
53389;SDS011;39288;42.970;1.524;2023-03-13T05:20:20;1.53;;;1.07;;
53389;SDS011;39288;42.970;1.524;2023-03-13T05:21:21;1.77;;;0.90;;
53389;SDS011;39288;42.970;1.524;2023-03-13T05:22:21;3.27;;;1.13;;
53389;SDS011;39288;42.970;1.524;2023-03-13T05:23:22;2.33;;;1.07;;
53389;SDS011;39288;42.970;1.524;2023-03-13T05:24:22;1.80;;;0.80;;
53389;SDS011;39288;42.970;1.524;2023-03-13T05:25:23;1.67;;;0.77;;
53389;SDS011;39288;42.970;1.524;2023-03-13T05:26:23;2.80;;;1.10;;
53389;SDS011;39288;42.970;1.524;2023-03-13T05:27:24;1.30;;;0.90;;
53389;SDS011;39288;42.970;1.524;2023-03-13T05:28:24;2.90;;;0.77;;
53389;SDS011;39288;42.970;1.524;2023-03-13T05:31:01;9.82;;;1.35;;
53389;SDS011;39288;42.970;1.524;2023-03-13T05:32:13;2.58;;;1.00;;
53389;SDS011;39288;42.970;1.524;2023-03-13T05:35:26;2.42;;;1.42;;
53389;SDS011;39288;42.970;1.524;2023-03-13T05:38:11;1.65;;;0.77;;
53389;SDS011;39288;42.970;1.524;2023-03-13T05:39:21;1.10;;;0.80;;
53389;SDS011;39288;42.970;1.524;2023-03-13T05:41:43;1.23;;;1.00;;
53389;SDS011;39288;42.970;1.524;2023-03-13T05:42:49;1.25;;;0.88;;
53389;SDS011;39288;42.970;1.524;2023-03-13T05:46:07;1.65;;;0.73;;
53389;SDS011;39288;42.970;1.524;2023-03-13T05:47:08;2.85;;;0.80;;
53389;SDS011;39288;42.970;1.524;2023-03-13T05:48:11;3.50;;;0.93;;
53389;SDS011;39288;42.970;1.524;2023-03-13T05:49:15;1.53;;;0.90;;
53389;SDS011;39288;42.970;1.524;2023-03-13T05:50:16;5.13;;;1.55;;
53389;SDS011;39288;42.970;1.524;2023-03-13T05:51:17;3.15;;;0.95;;
53389;SDS011;39288;42.970;1.524;2023-03-13T05:52:20;1.45;;;1.00;;
53389;SDS011;39288;42.970;1.524;2023-03-13T05:53:23;1.75;;;0.80;;
53389;SDS011;39288;42.970;1.524;2023-03-13T05:54:23;1.40;;;0.70;;
53389;SDS011;39288;42.970;1.524;2023-03-13T05:55:24;2.23;;;1.00;;
53389;SDS011;39288;42.970;1.524;2023-03-13T05:56:25;1.73;;;0.73;;
53389;SDS011;39288;42.970;1.524;2023-03-13T05:57:25;2.40;;;0.73;;
53389;SDS011;39288;42.970;1.524;2023-03-13T05:58:26;1.80;;;0.70;;
53389;SDS011;39288;42.970;1.524;2023-03-13T05:59:29;0.83;;;0.63;;
53389;SDS011;39288;42.970;1.524;2023-03-13T06:00:30;2.15;;;0.73;;
53389;SDS011;39288;42.970;1.524;2023-03-13T06:01:30;1.00;;;0.80;;
53389;SDS011;39288;42.970;1.524;2023-03-13T06:02:31;1.13;;;0.80;;
53389;SDS011;39288;42.970;1.524;2023-03-13T06:03:32;2.57;;;0.90;;
53389;SDS011;39288;42.970;1.524;2023-03-13T06:04:33;2.28;;;0.90;;
53389;SDS011;39288;42.970;1.524;2023-03-13T06:05:34;3.60;;;0.90;;
53389;SDS011;39288;42.970;1.524;2023-03-13T06:06:35;3.90;;;0.90;;
53389;SDS011;39288;42.970;1.524;2023-03-13T06:07:38;2.03;;;0.70;;
53389;SDS011;39288;42.970;1.524;2023-03-13T06:08:39;3.50;;;0.88;;
53389;SDS011;39288;42.970;1.524;2023-03-13T06:09:40;2.63;;;0.80;;
53389;SDS011;39288;42.970;1.524;2023-03-13T06:10:41;1.43;;;0.73;;
53389;SDS011;39288;42.970;1.524;2023-03-13T06:11:43;1.77;;;0.70;;
53389;SDS011;39288;42.970;1.524;2023-03-13T06:12:50;2.20;;;1.02;;
53389;SDS011;39288;42.970;1.524;2023-03-13T06:14:00;10.27;;;1.35;;
53389;SDS011;39288;42.970;1.524;2023-03-13T06:17:40;2.08;;;0.88;;
53389;SDS011;39288;42.970;1.524;2023-03-13T06:18:51;3.27;;;0.80;;
53389;SDS011;39288;42.970;1.524;2023-03-13T06:21:25;3.75;;;0.80;;
53389;SDS011;39288;42.970;1.524;2023-03-13T06:22:34;2.08;;;1.00;;
53389;SDS011;39288;42.970;1.524;2023-03-13T06:23:55;1.25;;;0.80;;
53389;SDS011;39288;42.970;1.524;2023-03-13T06:25:00;3.50;;;0.80;;
53389;SDS011;39288;42.970;1.524;2023-03-13T06:26:40;2.30;;;0.73;;
53389;SDS011;39288;42.970;1.524;2023-03-13T06:28:12;7.68;;;1.25;;
53389;SDS011;39288;42.970;1.524;2023-03-13T06:33:55;3.30;;;1.35;;
53389;SDS011;39288;42.970;1.524;2023-03-13T06:35:05;3.83;;;1.00;;
53389;SDS011;39288;42.970;1.524;2023-03-13T06:40:12;2.50;;;0.95;;
53389;SDS011;39288;42.970;1.524;2023-03-13T06:45:35;2.45;;;1.17;;
53389;SDS011;39288;42.970;1.524;2023-03-13T06:46:36;2.78;;;0.73;;
53389;SDS011;39288;42.970;1.524;2023-03-13T06:47:42;5.18;;;0.95;;
53389;SDS011;39288;42.970;1.524;2023-03-13T06:48:57;3.35;;;0.85;;
53389;SDS011;39288;42.970;1.524;2023-03-13T06:49:58;0.97;;;0.87;;
53389;SDS011;39288;42.970;1.524;2023-03-13T06:52:22;1.40;;;0.70;;
53389;SDS011;39288;42.970;1.524;2023-03-13T06:57:57;1.63;;;0.60;;
53389;SDS011;39288;42.970;1.524;2023-03-13T07:06:11;3.58;;;1.02;;
53389;SDS011;39288;42.970;1.524;2023-03-13T07:09:20;2.50;;;0.70;;
53389;SDS011;39288;42.970;1.524;2023-03-13T07:18:19;1.23;;;0.52;;
53389;SDS011;39288;42.970;1.524;2023-03-13T07:34:47;5.65;;;1.13;;
53389;SDS011;39288;42.970;1.524;2023-03-13T07:35:53;2.40;;;1.03;;
53389;SDS011;39288;42.970;1.524;2023-03-13T07:37:54;2.22;;;0.85;;
53389;SDS011;39288;42.970;1.524;2023-03-13T07:39:34;2.90;;;0.80;;
53389;SDS011;39288;42.970;1.524;2023-03-13T07:47:52;5.35;;;0.88;;
53389;SDS011;39288;42.970;1.524;2023-03-13T08:00:52;6.28;;;1.40;;
53389;SDS011;39288;42.970;1.524;2023-03-13T08:02:40;3.80;;;1.20;;
53389;SDS011;39288;42.970;1.524;2023-03-13T08:05:23;4.65;;;3.40;;
53389;SDS011;39288;42.970;1.524;2023-03-13T08:06:55;4.40;;;3.33;;
53389;SDS011;39288;42.970;1.524;2023-03-13T08:31:40;2.88;;;1.45;;
53389;SDS011;39288;42.970;1.524;2023-03-13T08:35:30;1.85;;;1.30;;
53389;SDS011;39288;42.970;1.524;2023-03-13T09:15:47;22.77;;;4.63;;
53389;SDS011;39288;42.970;1.524;2023-03-13T09:35:02;1.48;;;0.60;;
53389;SDS011;39288;42.970;1.524;2023-03-13T10:35:22;1.00;;;0.60;;
53389;SDS011;39288;42.970;1.524;2023-03-13T12:27:28;0.30;;;0.28;;
53389;SDS011;39288;42.970;1.524;2023-03-13T12:32:42;1.63;;;0.25;;
53389;SDS011;39288;42.970;1.524;2023-03-13T12:40:18;0.20;;;0.20;;
53389;SDS011;39288;42.970;1.524;2023-03-13T12:44:48;0.80;;;0.20;;
53389;SDS011;39288;42.970;1.524;2023-03-13T12:46:13;0.73;;;0.30;;
53389;SDS011;39288;42.970;1.524;2023-03-13T13:07:06;3.25;;;0.90;;
53389;SDS011;39288;42.970;1.524;2023-03-13T13:52:29;4.07;;;1.30;;
53389;SDS011;39288;42.970;1.524;2023-03-13T13:54:00;3.30;;;1.60;;
53389;SDS011;39288;42.970;1.524;2023-03-13T13:59:21;2.58;;;1.02;;
53389;SDS011;39288;42.970;1.524;2023-03-13T14:03:25;3.55;;;1.73;;
53389;SDS011;39288;42.970;1.524;2023-03-13T14:12:34;5.18;;;1.63;;
53389;SDS011;39288;42.970;1.524;2023-03-13T14:14:23;3.38;;;1.60;;
53389;SDS011;39288;42.970;1.524;2023-03-13T14:17:46;3.55;;;1.58;;
53389;SDS011;39288;42.970;1.524;2023-03-13T14:23:11;4.47;;;1.58;;
53389;SDS011;39288;42.970;1.524;2023-03-13T14:29:28;6.45;;;2.03;;
53389;SDS011;39288;42.970;1.524;2023-03-13T14:34:39;3.65;;;1.48;;
53389;SDS011;39288;42.970;1.524;2023-03-13T14:42:12;2.58;;;1.40;;
53389;SDS011;39288;42.970;1.524;2023-03-13T15:17:47;1.92;;;1.02;;
53389;SDS011;39288;42.970;1.524;2023-03-13T15:21:25;1.77;;;1.02;;
53389;SDS011;39288;42.970;1.524;2023-03-13T15:23:38;3.90;;;0.80;;
53389;SDS011;39288;42.970;1.524;2023-03-13T15:25:12;2.83;;;0.90;;